createdAt,value
2019-04-25T00:00:48.721Z,32.45
2019-04-25T00:03:25.311Z,40.92
2019-04-25T00:05:54.077Z,35.63
2019-04-25T00:08:23.211Z,30.52
2019-04-25T00:10:51.950Z,37.63
2019-04-25T00:13:21.794Z,33.70
2019-04-25T00:15:51.893Z,39.33
2019-04-25T00:18:21.981Z,39.53
2019-04-25T00:20:58.441Z,34.30
2019-04-25T00:23:27.168Z,36.42
2019-04-25T00:26:01.246Z,36.60
2019-04-25T00:28:31.633Z,35.00
2019-04-25T00:31:02.017Z,36.38
2019-04-25T00:33:31.550Z,34.40
2019-04-25T00:36:02.037Z,34.85
2019-04-25T00:38:31.857Z,37.00
2019-04-25T00:41:01.708Z,39.60
2019-04-25T00:43:31.461Z,36.53
2019-04-25T00:46:01.481Z,36.05
2019-04-25T00:48:31.712Z,34.80
2019-04-25T00:51:01.923Z,35.15
2019-04-25T00:53:32.370Z,35.10
2019-04-25T00:56:01.498Z,39.15
2019-04-25T00:58:48.896Z,38.15
2019-04-25T01:01:35.722Z,34.03
2019-04-25T01:04:04.551Z,42.65
2019-04-25T01:06:33.318Z,37.93
2019-04-25T01:09:03.455Z,37.90
2019-04-25T01:11:32.158Z,33.98
2019-04-25T01:14:02.157Z,33.65
2019-04-25T01:16:31.859Z,37.75
2019-04-25T01:19:00.958Z,37.55
2019-04-25T01:21:29.725Z,37.65
2019-04-25T01:23:58.342Z,33.90
2019-04-25T01:26:27.146Z,39.63
2019-04-25T01:28:56.029Z,33.88
2019-04-25T01:31:26.471Z,38.33
2019-04-25T01:33:55.605Z,39.85
2019-04-25T01:36:38.808Z,37.53
2019-04-25T01:39:24.139Z,39.78
2019-04-25T01:42:10.623Z,38.17
2019-04-25T01:44:54.209Z,37.93
2019-04-25T01:47:23.977Z,34.63
2019-04-25T01:49:54.376Z,41.85
2019-04-25T01:52:23.563Z,32.53
2019-04-25T01:54:54.635Z,34.48
2019-04-25T01:57:23.970Z,37.88
2019-04-25T01:59:54.134Z,37.75
2019-04-25T02:02:24.846Z,35.98
2019-04-25T02:04:56.800Z,35.70
2019-04-25T02:07:23.745Z,39.25
2019-04-25T02:09:54.777Z,39.10
2019-04-25T02:12:33.701Z,38.73
2019-04-25T02:15:05.938Z,38.35
2019-04-25T02:17:34.057Z,39.50
2019-04-25T02:20:05.168Z,33.05
2019-04-25T02:22:33.939Z,35.00
2019-04-25T02:25:05.373Z,39.78
2019-04-25T02:27:34.287Z,43.48
2019-04-25T02:30:06.791Z,36.30
2019-04-25T02:32:36.829Z,32.73
2019-04-25T02:35:09.588Z,38.08
2019-04-25T02:37:36.978Z,37.80
2019-04-25T02:40:09.115Z,40.85
2019-04-25T02:42:37.923Z,36.30
2019-04-25T02:45:28.525Z,36.53
2019-04-25T02:48:14.981Z,38.85
2019-04-25T02:50:56.478Z,36.75
2019-04-25T02:53:41.374Z,39.50
2019-04-25T02:56:27.536Z,37.67
2019-04-25T02:58:40.338Z,39.25
2019-04-25T03:01:19.407Z,37.58
2019-04-25T03:03:41.256Z,39.67
2019-04-25T03:06:10.081Z,36.38
2019-04-25T03:08:39.172Z,39.90
2019-04-25T03:11:09.218Z,41.73
2019-04-25T03:13:38.369Z,42.03
2019-04-25T03:16:09.693Z,47.30
2019-04-25T03:18:47.842Z,41.70
2019-04-25T03:21:18.221Z,39.90
2019-04-25T03:23:48.904Z,39.80
2019-04-25T03:26:17.611Z,40.83
2019-04-25T03:28:46.251Z,41.02
2019-04-25T03:31:22.031Z,40.58
2019-04-25T03:33:46.203Z,38.35
2019-04-25T03:36:16.928Z,41.08
2019-04-25T03:38:45.485Z,41.25
2019-04-25T03:41:14.765Z,41.05
2019-04-25T03:43:45.105Z,40.60
2019-04-25T03:46:14.259Z,39.58
2019-04-25T03:48:44.118Z,46.28
2019-04-25T03:51:15.332Z,43.25
2019-04-25T03:53:43.753Z,44.27
2019-04-25T03:56:14.488Z,41.10
2019-04-25T03:58:43.924Z,40.08
2019-04-25T04:01:15.410Z,41.65
2019-04-25T04:03:44.067Z,49.60
2019-04-25T04:06:14.605Z,41.98
2019-04-25T04:08:44.290Z,42.23
2019-04-25T04:11:14.963Z,47.33
2019-04-25T04:13:44.128Z,44.35
2019-04-25T04:16:15.596Z,38.70
2019-04-25T04:18:46.385Z,40.83
2019-04-25T04:21:17.389Z,42.30
2019-04-25T04:23:59.889Z,41.98
2019-04-25T04:26:28.689Z,43.83
2019-04-25T04:28:57.293Z,43.38
2019-04-25T04:31:27.754Z,43.52
2019-04-25T04:33:56.326Z,41.60
2019-04-25T04:36:24.934Z,43.80
2019-04-25T04:38:54.334Z,40.75
2019-04-25T04:41:23.951Z,42.85
2019-04-25T04:43:54.129Z,40.92
2019-04-25T04:46:24.007Z,49.35
2019-04-25T04:48:54.097Z,45.90
2019-04-25T04:51:23.664Z,48.85
2019-04-25T04:53:53.722Z,39.90
2019-04-25T04:56:23.927Z,46.28
2019-04-25T04:58:53.974Z,50.40
2019-04-25T05:01:24.795Z,45.23
2019-04-25T05:03:55.484Z,39.18
2019-04-25T05:06:31.867Z,42.30
2019-04-25T05:09:03.356Z,42.27
2019-04-25T05:11:33.490Z,43.92
2019-04-25T05:14:03.940Z,40.45
2019-04-25T05:16:33.190Z,45.25
2019-04-25T05:19:03.703Z,43.85
2019-04-25T05:21:33.658Z,39.85
2019-04-25T05:24:04.111Z,40.70
2019-04-25T05:26:34.143Z,41.23
2019-04-25T05:29:03.639Z,44.58
2019-04-25T05:31:34.289Z,40.67
2019-04-25T05:34:03.668Z,44.65
2019-04-25T05:36:38.487Z,45.35
2019-04-25T05:39:09.405Z,48.63
2019-04-25T05:41:49.530Z,39.73
2019-04-25T05:44:18.729Z,41.30
2019-04-25T05:46:47.438Z,44.60
2019-04-25T05:49:17.116Z,42.90
2019-04-25T05:51:46.148Z,42.33
2019-04-25T05:54:14.756Z,40.23
2019-04-25T05:56:43.787Z,38.17
2019-04-25T05:59:13.465Z,41.98
2019-04-25T06:01:43.469Z,42.45
2019-04-25T06:04:13.582Z,43.23
2019-04-25T06:06:42.553Z,38.48
2019-04-25T06:09:21.937Z,41.77
2019-04-25T06:11:53.330Z,42.03
2019-04-25T06:14:24.022Z,43.73
2019-04-25T06:16:54.866Z,38.23
2019-04-25T06:19:39.925Z,37.30
2019-04-25T06:22:10.338Z,38.83
2019-04-25T06:24:44.393Z,52.23
2019-04-25T06:27:15.068Z,36.35
2019-04-25T06:29:57.408Z,40.88
2019-04-25T06:32:15.975Z,37.88
2019-04-25T06:34:44.608Z,36.58
2019-04-25T06:37:13.871Z,36.23
2019-04-25T06:39:44.252Z,34.70
2019-04-25T06:42:13.849Z,34.63
2019-04-25T06:44:44.529Z,35.80
2019-04-25T06:47:17.571Z,35.43
2019-04-25T06:49:46.355Z,33.73
2019-04-25T06:52:14.963Z,29.32
2019-04-25T06:54:43.736Z,37.25
2019-04-25T06:57:14.030Z,29.18
2019-04-25T06:59:43.738Z,36.77
2019-04-25T07:02:13.977Z,30.37
2019-04-25T07:04:43.488Z,28.38
2019-04-25T07:07:14.912Z,32.55
2019-04-25T07:09:43.861Z,23.73
2019-04-25T07:12:13.449Z,24.27
2019-04-25T07:14:43.942Z,32.75
2019-04-25T07:17:14.287Z,27.90
2019-04-25T07:19:44.046Z,25.23
2019-04-25T07:22:15.210Z,21.68
2019-04-25T07:24:43.971Z,24.32
2019-04-25T07:27:24.623Z,20.75
2019-04-25T07:29:58.041Z,20.35
2019-04-25T07:32:30.861Z,18.82
2019-04-25T07:34:58.947Z,16.05
2019-04-25T07:37:27.675Z,23.85
2019-04-25T07:39:56.527Z,21.20
2019-04-25T07:42:25.969Z,19.67
2019-04-25T07:44:55.902Z,18.80
2019-04-25T07:47:24.698Z,13.88
2019-04-25T07:49:54.210Z,15.53
2019-04-25T07:52:23.494Z,19.27
2019-04-25T07:54:53.531Z,14.30
2019-04-25T07:57:23.761Z,17.45
2019-04-25T07:59:53.726Z,15.63
2019-04-25T08:02:23.342Z,20.62
2019-04-25T08:04:52.223Z,15.03
2019-04-25T08:07:21.380Z,18.17
2019-04-25T08:09:50.108Z,20.23
2019-04-25T08:12:18.795Z,12.70
2019-04-25T08:14:49.144Z,13.45
2019-04-25T08:17:32.538Z,14.95
2019-04-25T08:20:03.987Z,15.43
2019-04-25T08:22:34.480Z,18.98
2019-04-25T08:25:07.361Z,21.65
2019-04-25T08:27:36.748Z,14.65
2019-04-25T08:30:06.596Z,18.15
2019-04-25T08:32:36.390Z,16.65
2019-04-25T08:35:06.677Z,17.25
2019-04-25T08:37:36.536Z,12.53
2019-04-25T08:40:07.583Z,16.65
2019-04-25T08:42:36.806Z,14.95
2019-04-25T08:45:07.457Z,10.38
2019-04-25T08:47:37.311Z,10.08
2019-04-25T08:50:26.944Z,22.82
2019-04-25T08:52:46.454Z,18.48
2019-04-25T08:55:34.941Z,18.55
2019-04-25T08:58:08.487Z,19.15
2019-04-25T09:00:44.940Z,15.05
2019-04-25T09:03:18.155Z,15.10
2019-04-25T09:05:48.786Z,17.73
2019-04-25T09:08:17.542Z,14.45
2019-04-25T09:10:46.302Z,17.73
2019-04-25T09:13:15.052Z,14.25
2019-04-25T09:15:45.498Z,16.10
2019-04-25T09:18:14.183Z,15.08
2019-04-25T09:20:45.919Z,13.35
2019-04-25T09:23:13.933Z,12.73
2019-04-25T09:25:44.482Z,11.40
2019-04-25T09:28:14.227Z,10.95
2019-04-25T09:30:44.852Z,12.73
2019-04-25T09:33:13.481Z,12.20
2019-04-25T09:35:42.172Z,11.33
2019-04-25T09:38:13.304Z,10.53
2019-04-25T09:40:44.458Z,13.20
2019-04-25T09:43:14.233Z,9.95
2019-04-25T09:45:47.673Z,9.43
2019-04-25T09:48:24.049Z,11.10
2019-04-25T09:50:57.410Z,11.83
2019-04-25T09:53:26.157Z,14.23
2019-04-25T09:55:58.854Z,15.55
2019-04-25T09:58:36.439Z,10.45
2019-04-25T10:01:13.875Z,17.32
2019-04-25T10:03:44.751Z,11.40
2019-04-25T10:06:17.676Z,11.90
2019-04-25T10:08:47.425Z,15.48
2019-04-25T10:11:16.859Z,12.82
2019-04-25T10:13:48.535Z,14.20
2019-04-25T10:16:17.297Z,12.15
2019-04-25T10:18:45.973Z,13.08
2019-04-25T10:21:15.093Z,8.70
2019-04-25T10:23:45.319Z,11.48
2019-04-25T10:26:14.549Z,11.18
2019-04-25T10:28:44.129Z,12.85
2019-04-25T10:31:13.863Z,14.53
2019-04-25T10:33:43.753Z,14.70
2019-04-25T10:36:14.464Z,9.03
2019-04-25T10:38:46.988Z,9.90
2019-04-25T10:41:14.278Z,9.73
2019-04-25T10:43:43.953Z,9.28
2019-04-25T10:46:14.230Z,9.25
2019-04-25T10:48:43.975Z,13.80
2019-04-25T10:51:13.940Z,9.90
2019-04-25T10:53:45.386Z,9.68
2019-04-25T10:56:14.191Z,14.60
2019-04-25T10:58:44.397Z,11.50
2019-04-25T11:01:15.144Z,7.83
2019-04-25T11:03:51.722Z,9.00
2019-04-25T11:06:23.880Z,12.98
2019-04-25T11:08:55.436Z,11.00
2019-04-25T11:11:24.103Z,8.45
2019-04-25T11:13:55.693Z,7.65
2019-04-25T11:16:24.443Z,11.03
2019-04-25T11:18:54.748Z,11.20
2019-04-25T11:21:24.268Z,14.95
2019-04-25T11:23:55.107Z,10.85
2019-04-25T11:26:23.683Z,21.62
2019-04-25T11:28:52.328Z,9.58
2019-04-25T11:31:23.492Z,9.30
2019-04-25T11:33:54.366Z,12.20
2019-04-25T11:36:24.812Z,9.50
2019-04-25T11:39:01.195Z,10.25
2019-04-25T11:41:30.394Z,6.33
2019-04-25T11:44:00.443Z,6.78
2019-04-25T11:46:29.262Z,12.18
2019-04-25T11:48:58.011Z,14.35
2019-04-25T11:51:26.674Z,8.28
2019-04-25T11:53:55.607Z,6.50
2019-04-25T11:56:24.463Z,11.78
2019-04-25T11:58:54.150Z,11.78
2019-04-25T12:01:24.346Z,9.23
2019-04-25T12:03:54.841Z,9.50
2019-04-25T12:06:24.356Z,10.20
2019-04-25T12:08:54.253Z,6.33
2019-04-25T12:11:23.776Z,8.53
2019-04-25T12:13:54.193Z,8.35
2019-04-25T12:16:24.632Z,6.15
2019-04-25T12:18:55.332Z,12.80
2019-04-25T12:21:24.012Z,10.10
2019-04-25T12:23:52.778Z,10.25
2019-04-25T12:26:24.289Z,9.95
2019-04-25T12:28:53.918Z,23.45
2019-04-25T12:31:23.818Z,11.68
2019-04-25T12:33:54.786Z,10.72
2019-04-25T12:36:24.012Z,5.72
2019-04-25T12:38:54.286Z,14.75
2019-04-25T12:41:23.219Z,9.98
2019-04-25T12:43:56.539Z,5.78
2019-04-25T12:46:26.862Z,13.43
2019-04-25T12:48:55.447Z,7.60
2019-04-25T12:51:24.063Z,8.55
2019-04-25T12:53:55.231Z,11.22
2019-04-25T12:56:24.715Z,11.55
2019-04-25T12:58:53.879Z,9.33
2019-04-25T13:01:24.899Z,15.13
2019-04-25T13:03:54.391Z,8.53
2019-04-25T13:06:24.188Z,11.45
2019-04-25T13:08:54.259Z,13.30
2019-04-25T13:11:24.043Z,9.70
2019-04-25T13:13:52.834Z,10.13
2019-04-25T13:16:21.587Z,10.82
2019-04-25T13:18:50.790Z,11.63
2019-04-25T13:21:19.458Z,12.30
2019-04-25T13:23:48.926Z,9.30
2019-04-25T13:26:19.271Z,18.17
2019-04-25T13:28:49.483Z,13.62
2019-04-25T13:31:28.600Z,9.85
2019-04-25T13:33:58.919Z,15.95
2019-04-25T13:36:27.575Z,13.10
2019-04-25T13:38:56.357Z,19.55
2019-04-25T13:41:25.839Z,10.00
2019-04-25T13:43:54.800Z,14.75
2019-04-25T13:46:26.086Z,11.73
2019-04-25T13:48:54.371Z,11.13
2019-04-25T13:51:24.638Z,10.08
2019-04-25T13:53:54.518Z,10.35
2019-04-25T13:56:25.887Z,14.20
2019-04-25T13:58:54.305Z,8.58
2019-04-25T14:01:24.659Z,18.90
2019-04-25T14:03:54.286Z,11.12
2019-04-25T14:06:23.991Z,13.85
2019-04-25T14:08:53.442Z,13.62
2019-04-25T14:11:24.131Z,15.25
2019-04-25T14:13:53.424Z,14.03
2019-04-25T14:16:25.345Z,16.10
2019-04-25T14:18:55.567Z,11.55
2019-04-25T14:21:26.131Z,13.78
2019-04-25T14:26:27.017Z,13.45
2019-04-25T14:28:55.728Z,13.50
2019-04-25T14:31:41.230Z,11.73
2019-04-25T14:33:55.832Z,11.10
2019-04-25T14:36:26.000Z,12.50
2019-04-25T14:38:55.034Z,17.65
2019-04-25T14:41:23.879Z,11.35
2019-04-25T14:43:52.594Z,12.43
2019-04-25T14:46:21.264Z,13.43
2019-04-25T14:48:50.303Z,11.95
2019-04-25T14:51:19.090Z,11.33
2019-04-25T14:53:47.835Z,10.40
2019-04-25T14:56:36.375Z,15.23
2019-04-25T14:59:05.980Z,11.48
2019-04-25T15:01:44.617Z,9.78
2019-04-25T15:04:05.082Z,16.50
2019-04-25T15:06:33.754Z,13.25
2019-04-25T15:09:02.475Z,14.25
2019-04-25T15:11:31.507Z,10.98
2019-04-25T15:14:00.295Z,14.00
2019-04-25T15:16:29.083Z,13.40
2019-04-25T15:18:57.719Z,15.78
2019-04-25T15:21:27.522Z,11.25
2019-04-25T15:24:00.398Z,15.70
2019-04-25T15:26:26.833Z,12.55
2019-04-25T15:28:55.835Z,12.95
2019-04-25T15:31:25.492Z,12.58
2019-04-25T15:33:54.345Z,14.75
2019-04-25T15:36:30.613Z,11.75
2019-04-25T15:39:17.159Z,19.17
2019-04-25T15:41:53.413Z,18.95
2019-04-25T15:44:35.306Z,19.92
2019-04-25T15:47:04.517Z,21.68
2019-04-25T15:49:33.215Z,18.23
2019-04-25T15:52:02.073Z,16.05
2019-04-25T15:54:31.686Z,19.37
2019-04-25T15:57:00.522Z,14.45
2019-04-25T15:59:30.704Z,18.23
2019-04-25T16:02:07.861Z,18.90
2019-04-25T16:04:30.395Z,18.05
2019-04-25T16:06:59.239Z,13.72
2019-04-25T16:09:28.479Z,16.32
2019-04-25T16:11:57.069Z,16.52
2019-04-25T16:14:26.466Z,16.50
2019-04-25T16:16:55.124Z,11.63
2019-04-25T16:19:23.814Z,13.60
2019-04-25T16:21:52.532Z,14.00
2019-04-25T16:24:21.199Z,16.35
2019-04-25T16:26:50.047Z,17.50
2019-04-25T16:29:18.695Z,14.78
2019-04-25T16:31:47.367Z,16.37
2019-04-25T16:34:16.136Z,18.65
2019-04-25T16:36:44.708Z,23.15
2019-04-25T16:39:15.031Z,17.92
2019-04-25T16:41:43.919Z,15.50
2019-04-25T16:44:14.311Z,20.10
2019-04-25T16:46:42.938Z,15.38
2019-04-25T16:49:11.642Z,17.32
2019-04-25T16:51:40.232Z,16.87
2019-04-25T16:54:08.918Z,16.48
2019-04-25T16:56:37.559Z,16.73
2019-04-25T16:59:06.254Z,16.80
2019-04-25T17:01:35.994Z,19.70
2019-04-25T17:04:05.182Z,22.95
2019-04-25T17:06:34.007Z,23.32
2019-04-25T17:09:03.299Z,16.37
2019-04-25T17:11:32.065Z,22.13
2019-04-25T17:14:08.332Z,23.65
2019-04-25T17:16:42.331Z,20.92
2019-04-25T17:19:13.065Z,14.58
2019-04-25T17:21:41.793Z,26.35
2019-04-25T17:24:10.566Z,23.32
2019-04-25T17:26:39.521Z,17.95
2019-04-25T17:29:10.927Z,18.27
2019-04-25T17:31:48.686Z,20.75
2019-04-25T17:34:19.132Z,20.02
2019-04-25T17:37:08.867Z,16.20
2019-04-25T17:39:39.756Z,26.90
2019-04-25T17:42:08.642Z,21.35
2019-04-25T17:44:38.381Z,19.20
2019-04-25T17:47:07.493Z,20.32
2019-04-25T17:49:36.809Z,21.82
2019-04-25T17:52:09.241Z,20.82
2019-04-25T17:54:38.868Z,24.47
2019-04-25T17:57:07.650Z,21.07
2019-04-25T17:59:36.926Z,24.52
2019-04-25T18:02:06.229Z,21.75
2019-04-25T18:04:35.372Z,20.92
2019-04-25T18:07:05.108Z,23.15
2019-04-25T18:09:34.443Z,21.48
2019-04-25T18:12:07.497Z,21.48
2019-04-25T18:14:36.445Z,27.27
2019-04-25T18:17:05.291Z,33.73
2019-04-25T18:19:44.789Z,21.27
2019-04-25T18:22:17.997Z,23.35
2019-04-25T18:25:03.636Z,19.52
2019-04-25T18:27:37.663Z,22.27
2019-04-25T18:30:07.998Z,21.80
2019-04-25T18:32:41.159Z,20.57
2019-04-25T18:35:11.840Z,18.70
2019-04-25T18:37:57.259Z,20.88
2019-04-25T18:40:27.677Z,22.37
2019-04-25T18:43:00.823Z,19.65
2019-04-25T18:45:31.134Z,21.23
2019-04-25T18:47:59.930Z,28.02
2019-04-25T18:50:30.147Z,20.17
2019-04-25T18:53:16.795Z,18.45
2019-04-25T18:55:47.842Z,19.73
2019-04-25T18:58:30.017Z,21.73
2019-04-25T19:01:12.192Z,18.30
2019-04-25T19:03:48.381Z,20.35
2019-04-25T19:06:21.564Z,22.45
2019-04-25T19:08:53.199Z,20.68
2019-04-25T19:11:20.633Z,22.32
2019-04-25T19:13:49.379Z,22.27
2019-04-25T19:16:18.438Z,17.55
2019-04-25T19:18:48.000Z,18.62
2019-04-25T19:21:16.795Z,18.55
2019-04-25T19:23:46.078Z,20.23
2019-04-25T19:26:15.037Z,20.45
2019-04-25T19:28:44.766Z,22.05
2019-04-25T19:31:13.691Z,21.55
2019-04-25T19:33:43.317Z,24.70
2019-04-25T19:36:12.313Z,29.77
2019-04-25T19:38:41.910Z,28.65
2019-04-25T19:41:15.296Z,17.17
2019-04-25T19:43:57.324Z,27.45
2019-04-25T19:46:27.613Z,18.80
2019-04-25T19:48:56.262Z,24.47
2019-04-25T19:51:26.512Z,37.38
2019-04-25T19:53:55.399Z,40.17
2019-04-25T19:56:24.123Z,26.00
2019-04-25T19:58:52.833Z,21.97
2019-04-25T20:01:21.673Z,20.95
2019-04-25T20:03:56.791Z,20.05
2019-04-25T20:06:24.127Z,20.17
2019-04-25T20:08:57.418Z,23.83
2019-04-25T20:11:27.821Z,26.55
2019-04-25T20:13:56.569Z,24.40
2019-04-25T20:16:26.416Z,19.45
2019-04-25T20:18:55.185Z,23.80
2019-04-25T20:21:23.827Z,22.40
2019-04-25T20:23:52.489Z,23.80
2019-04-25T20:26:21.217Z,21.30
2019-04-25T20:28:49.868Z,23.92
2019-04-25T20:31:18.464Z,19.92
2019-04-25T20:33:47.063Z,20.30
2019-04-25T20:36:17.971Z,17.15
2019-04-25T20:38:47.206Z,19.98
2019-04-25T20:41:16.130Z,18.12
2019-04-25T20:43:44.920Z,15.20
2019-04-25T20:46:13.571Z,18.45
2019-04-25T20:48:42.214Z,19.50
2019-04-25T20:51:10.861Z,22.55
2019-04-25T20:53:39.484Z,24.45
2019-04-25T20:56:08.147Z,18.90
2019-04-25T20:58:36.903Z,23.45
2019-04-25T21:01:05.643Z,19.95
2019-04-25T21:03:34.284Z,20.37
2019-04-25T21:06:04.565Z,21.02
2019-04-25T21:08:33.200Z,20.25
2019-04-25T21:11:02.174Z,19.35
2019-04-25T21:13:35.394Z,22.00
2019-04-25T21:16:08.130Z,17.92
2019-04-25T21:18:38.350Z,13.68
2019-04-25T21:21:07.101Z,18.60
2019-04-25T21:23:35.687Z,22.50
2019-04-25T21:26:04.425Z,22.02
2019-04-25T21:28:33.070Z,26.15
2019-04-25T21:31:02.451Z,21.52
2019-04-25T21:33:32.211Z,18.50
2019-04-25T21:36:01.567Z,20.60
2019-04-25T21:38:30.971Z,21.00
2019-04-25T21:41:17.496Z,19.27
2019-04-25T21:43:48.277Z,19.67
2019-04-25T21:46:17.452Z,20.32
2019-04-25T21:48:46.330Z,17.75
2019-04-25T21:51:33.524Z,17.82
2019-04-25T21:54:03.601Z,19.85
2019-04-25T21:56:32.790Z,23.65
2019-04-25T21:59:01.985Z,28.67
2019-04-25T22:01:35.470Z,23.00
2019-04-25T22:04:05.187Z,22.80
2019-04-25T22:06:34.179Z,20.23
2019-04-25T22:09:05.091Z,26.27
2019-04-25T22:11:33.974Z,27.32
2019-04-25T22:14:03.446Z,29.70
2019-04-25T22:16:32.477Z,27.93
2019-04-25T22:19:02.059Z,28.38
2019-04-25T22:21:37.993Z,22.35
2019-04-25T22:24:08.886Z,22.52
2019-04-25T22:26:31.971Z,21.00
2019-04-25T22:29:01.279Z,22.20
2019-04-25T22:31:34.433Z,18.37
2019-04-25T22:34:10.307Z,21.05
2019-04-25T22:36:39.448Z,28.70
2019-04-25T22:39:09.982Z,22.80
2019-04-25T22:41:42.562Z,20.70
2019-04-25T22:44:13.776Z,23.60
2019-04-25T22:46:43.179Z,24.98
2019-04-25T22:49:12.622Z,26.50
2019-04-25T22:51:41.354Z,18.57
2019-04-25T22:54:10.406Z,22.45
2019-04-25T22:56:39.005Z,20.95
2019-04-25T22:59:08.942Z,21.85
2019-04-25T23:01:39.447Z,18.82
2019-04-25T23:04:21.451Z,16.27
2019-04-25T23:06:50.059Z,21.20
2019-04-25T23:09:18.660Z,27.27
2019-04-25T23:11:47.546Z,21.48
2019-04-25T23:14:16.295Z,18.92
2019-04-25T23:16:44.940Z,19.20
2019-04-25T23:19:13.510Z,19.37
2019-04-25T23:21:42.627Z,23.00
2019-04-25T23:24:11.902Z,17.48
2019-04-25T23:26:57.376Z,18.35
2019-04-25T23:29:26.027Z,22.67
2019-04-25T23:31:54.641Z,20.00
2019-04-25T23:34:23.306Z,19.15
2019-04-25T23:36:51.986Z,19.90
2019-04-25T23:39:20.958Z,19.85
2019-04-25T23:41:49.582Z,24.52
2019-04-25T23:44:18.183Z,16.73
2019-04-25T23:46:47.294Z,20.45
2019-04-25T23:49:16.986Z,21.37
2019-04-25T23:51:46.278Z,19.52
2019-04-25T23:54:15.090Z,24.77
2019-04-25T23:56:43.982Z,18.30
2019-04-25T23:59:13.545Z,23.65
